createdAt,value
2022-12-06T00:02:17.512Z,42.51
2022-12-06T00:04:48.288Z,41.45
2022-12-06T00:07:17.828Z,40.04
2022-12-06T00:09:47.193Z,41.25
2022-12-06T00:12:16.884Z,39.69
2022-12-06T00:14:46.276Z,40.63
2022-12-06T00:17:15.760Z,40.44
2022-12-06T00:19:45.237Z,36.55
2022-12-06T00:22:14.882Z,36.50
2022-12-06T00:24:44.200Z,36.72
2022-12-06T00:27:15.089Z,36.96
2022-12-06T00:29:44.988Z,35.84
2022-12-06T00:32:19.218Z,35.20
2022-12-06T00:34:49.222Z,35.03
2022-12-06T00:37:22.081Z,34.70
2022-12-06T00:39:51.587Z,34.35
2022-12-06T00:42:20.781Z,33.73
2022-12-06T00:44:50.731Z,33.54
2022-12-06T00:47:20.224Z,33.57
2022-12-06T00:49:50.210Z,33.28
2022-12-06T00:52:19.575Z,32.14
2022-12-06T00:54:49.083Z,32.56
2022-12-06T00:57:18.663Z,34.54
2022-12-06T00:59:48.040Z,33.92
2022-12-06T01:02:17.615Z,35.26
2022-12-06T01:04:47.025Z,33.93
2022-12-06T01:07:16.741Z,35.58
2022-12-06T01:09:46.079Z,36.77
2022-12-06T01:12:15.696Z,38.88
2022-12-06T01:14:46.573Z,36.28
2022-12-06T01:17:16.053Z,34.72
2022-12-06T01:19:45.352Z,36.35
2022-12-06T01:22:17.335Z,35.68
2022-12-06T01:24:49.257Z,34.29
2022-12-06T01:27:18.512Z,33.64
2022-12-06T01:29:47.731Z,33.75
2022-12-06T01:32:17.151Z,33.71
2022-12-06T01:34:46.638Z,34.42
2022-12-06T01:37:19.936Z,35.64
2022-12-06T01:39:49.589Z,35.24
2022-12-06T01:42:19.178Z,34.43
2022-12-06T01:44:50.762Z,34.20
2022-12-06T01:47:26.520Z,33.91
2022-12-06T01:50:14.645Z,33.95
2022-12-06T01:52:53.583Z,33.93
2022-12-06T01:55:31.259Z,34.28
2022-12-06T01:58:07.028Z,34.93
2022-12-06T02:00:37.044Z,36.03
2022-12-06T02:03:12.758Z,35.72
2022-12-06T02:05:45.931Z,34.01
2022-12-06T02:08:16.043Z,33.46
2022-12-06T02:10:45.508Z,33.42
2022-12-06T02:13:15.157Z,34.29
2022-12-06T02:15:51.248Z,34.71
2022-12-06T02:18:30.634Z,35.78
2022-12-06T02:21:17.609Z,37.60
2022-12-06T02:24:10.022Z,37.46
2022-12-06T02:26:51.821Z,38.33
2022-12-06T02:29:47.414Z,37.73
2022-12-06T02:32:20.230Z,38.44
2022-12-06T02:35:16.837Z,37.74
2022-12-06T02:37:59.795Z,37.88
2022-12-06T02:40:38.154Z,36.22
2022-12-06T02:43:19.086Z,37.32
2022-12-06T02:45:56.604Z,36.96
2022-12-06T02:48:27.932Z,36.68
2022-12-06T02:51:08.138Z,35.96
2022-12-06T02:53:42.253Z,35.57
2022-12-06T02:56:13.516Z,35.77
2022-12-06T02:58:43.068Z,35.00
2022-12-06T03:01:26.192Z,36.26
2022-12-06T03:04:07.350Z,36.42
2022-12-06T03:07:03.684Z,36.96
2022-12-06T03:09:56.041Z,36.90
2022-12-06T03:12:56.580Z,37.20
2022-12-06T03:15:35.190Z,34.05
2022-12-06T03:18:21.312Z,34.60
2022-12-06T03:20:59.487Z,34.08
2022-12-06T03:23:35.237Z,31.09
2022-12-06T03:26:07.010Z,32.72
2022-12-06T03:28:39.342Z,32.57
2022-12-06T03:31:13.758Z,32.38
2022-12-06T03:33:50.827Z,31.14
2022-12-06T03:36:21.469Z,33.40
2022-12-06T03:39:01.689Z,32.75
2022-12-06T03:41:38.293Z,33.09
2022-12-06T03:44:08.203Z,32.27
2022-12-06T03:46:42.735Z,33.28
2022-12-06T03:49:19.161Z,33.09
2022-12-06T03:51:49.603Z,33.33
2022-12-06T03:54:19.613Z,33.52
2022-12-06T03:56:49.021Z,37.88
2022-12-06T03:59:18.755Z,39.95
2022-12-06T04:01:48.314Z,39.13
2022-12-06T04:04:18.089Z,41.64
2022-12-06T04:06:47.550Z,42.01
2022-12-06T04:09:35.020Z,43.47
2022-12-06T04:12:24.587Z,39.52
2022-12-06T04:14:54.166Z,35.41
2022-12-06T04:17:41.763Z,40.92
2022-12-06T04:20:12.074Z,39.36
2022-12-06T04:23:00.002Z,39.97
2022-12-06T04:25:29.603Z,40.13
2022-12-06T04:28:17.395Z,42.41
2022-12-06T04:31:05.267Z,42.44
2022-12-06T04:33:53.580Z,38.96
2022-12-06T04:36:41.078Z,39.98
2022-12-06T04:39:12.424Z,36.40
2022-12-06T04:42:02.343Z,39.60
2022-12-06T04:44:31.794Z,38.50
2022-12-06T04:47:01.260Z,38.48
2022-12-06T04:49:30.894Z,35.05
2022-12-06T04:52:00.301Z,33.44
2022-12-06T04:54:31.361Z,35.69
2022-12-06T04:57:01.179Z,37.52
2022-12-06T04:59:31.350Z,32.61
2022-12-06T05:02:00.970Z,33.92
2022-12-06T05:04:30.210Z,37.50
2022-12-06T05:07:00.037Z,35.65
2022-12-06T05:09:29.579Z,35.94
2022-12-06T05:11:59.517Z,31.50
2022-12-06T05:14:29.680Z,36.86
2022-12-06T05:17:00.031Z,33.11
2022-12-06T05:19:30.247Z,32.30
2022-12-06T05:21:59.499Z,31.88
2022-12-06T05:24:29.128Z,33.92
2022-12-06T05:26:58.361Z,38.45
2022-12-06T05:29:28.087Z,37.55
2022-12-06T05:31:57.637Z,35.53
2022-12-06T05:34:27.324Z,34.67
2022-12-06T05:36:56.913Z,36.80
2022-12-06T05:39:26.765Z,37.76
2022-12-06T05:41:56.089Z,36.15
2022-12-06T05:44:25.838Z,37.53
2022-12-06T05:46:55.137Z,37.77
2022-12-06T05:49:24.890Z,36.89
2022-12-06T05:51:54.379Z,36.84
2022-12-06T05:54:23.961Z,35.75
2022-12-06T05:56:53.479Z,38.83
2022-12-06T05:59:23.145Z,39.20
2022-12-06T06:01:52.672Z,36.75
2022-12-06T06:04:22.245Z,39.75
2022-12-06T06:06:52.564Z,39.14
2022-12-06T06:09:22.473Z,38.78
2022-12-06T06:11:52.857Z,41.01
2022-12-06T06:14:22.779Z,37.40
2022-12-06T06:16:53.451Z,33.76
2022-12-06T06:19:25.322Z,38.24
2022-12-06T06:21:54.906Z,36.46
2022-12-06T06:24:24.849Z,38.09
2022-12-06T06:26:54.291Z,37.92
2022-12-06T06:29:23.379Z,33.51
2022-12-06T06:31:52.940Z,34.82
2022-12-06T06:34:22.512Z,31.99
2022-12-06T06:36:53.246Z,31.30
2022-12-06T06:39:22.742Z,28.58
2022-12-06T06:41:52.035Z,31.42
2022-12-06T06:44:21.406Z,28.92
2022-12-06T06:46:50.641Z,29.38
2022-12-06T06:49:20.073Z,27.27
2022-12-06T06:51:49.319Z,27.76
2022-12-06T06:54:19.453Z,29.73
2022-12-06T06:56:48.493Z,27.61
2022-12-06T06:59:17.965Z,23.20
2022-12-06T07:01:47.459Z,30.11
2022-12-06T07:04:17.226Z,26.93
2022-12-06T07:06:46.795Z,23.05
2022-12-06T07:09:16.535Z,22.87
2022-12-06T07:11:46.158Z,25.85
2022-12-06T07:14:15.671Z,23.17
2022-12-06T07:16:45.123Z,26.79
2022-12-06T07:19:14.537Z,22.81
2022-12-06T07:21:43.648Z,25.41
2022-12-06T07:24:13.732Z,23.76
2022-12-06T07:26:42.995Z,27.53
2022-12-06T07:29:12.349Z,22.16
2022-12-06T07:31:42.179Z,22.37
2022-12-06T07:34:11.859Z,19.44
2022-12-06T07:36:41.144Z,20.26
2022-12-06T07:39:14.704Z,24.09
2022-12-06T07:42:03.082Z,25.31
2022-12-06T07:45:03.114Z,25.61
2022-12-06T07:47:41.000Z,20.42
2022-12-06T07:50:17.844Z,22.57
2022-12-06T07:52:49.762Z,21.84
2022-12-06T07:55:19.512Z,21.54
2022-12-06T07:57:49.080Z,21.69
2022-12-06T08:00:20.320Z,23.63
2022-12-06T08:02:49.898Z,23.33
2022-12-06T08:05:19.514Z,23.68
2022-12-06T08:07:49.549Z,22.22
2022-12-06T08:10:19.148Z,23.32
2022-12-06T08:12:48.548Z,23.36
2022-12-06T08:15:18.171Z,20.67
2022-12-06T08:17:47.875Z,19.34
2022-12-06T08:20:17.526Z,21.38
2022-12-06T08:22:46.957Z,20.65
2022-12-06T08:25:16.721Z,25.42
2022-12-06T08:27:46.046Z,23.93
2022-12-06T08:30:15.974Z,20.54
2022-12-06T08:32:45.151Z,22.85
2022-12-06T08:35:15.302Z,24.67
2022-12-06T08:37:44.986Z,21.73
2022-12-06T08:40:14.735Z,22.95
2022-12-06T08:42:47.941Z,20.31
2022-12-06T08:45:17.531Z,24.07
2022-12-06T08:47:46.804Z,22.01
2022-12-06T08:50:16.464Z,27.70
2022-12-06T08:52:45.635Z,29.78
2022-12-06T08:55:15.945Z,26.84
2022-12-06T08:57:45.565Z,25.59
2022-12-06T09:00:15.568Z,24.66
2022-12-06T09:02:44.860Z,23.95
2022-12-06T09:05:14.103Z,22.83
2022-12-06T09:07:43.737Z,22.45
2022-12-06T09:10:13.516Z,24.04
2022-12-06T09:12:43.359Z,22.46
2022-12-06T09:15:15.413Z,25.29
2022-12-06T09:17:44.646Z,25.21
2022-12-06T09:20:19.139Z,26.42
2022-12-06T09:22:48.779Z,26.25
2022-12-06T09:25:18.873Z,25.74
2022-12-06T09:27:49.103Z,25.23
2022-12-06T09:30:18.651Z,26.44
2022-12-06T09:32:49.585Z,28.88
2022-12-06T09:35:24.755Z,31.69
2022-12-06T09:37:54.985Z,26.63
2022-12-06T09:40:43.113Z,26.39
2022-12-06T09:43:33.515Z,27.80
2022-12-06T09:46:08.479Z,28.07
2022-12-06T09:49:03.660Z,26.89
2022-12-06T09:52:04.685Z,27.14
2022-12-06T09:54:40.025Z,26.62
2022-12-06T09:57:34.011Z,27.81
2022-12-06T10:00:22.318Z,26.81
2022-12-06T10:03:28.983Z,26.03
2022-12-06T10:06:06.683Z,26.11
2022-12-06T10:09:03.569Z,26.50
2022-12-06T10:11:45.418Z,27.61
2022-12-06T10:14:32.076Z,25.44
2022-12-06T10:17:10.396Z,25.67
2022-12-06T10:20:01.822Z,25.39
2022-12-06T10:22:49.721Z,25.81
2022-12-06T10:25:28.743Z,27.72
2022-12-06T10:28:23.603Z,27.02
2022-12-06T10:30:57.331Z,27.58
2022-12-06T10:33:32.756Z,28.01
2022-12-06T10:36:06.464Z,26.63
2022-12-06T10:39:27.849Z,27.78
2022-12-06T10:42:22.092Z,26.70
2022-12-06T10:45:38.956Z,28.59
2022-12-06T10:48:31.544Z,28.90
2022-12-06T10:51:12.450Z,30.68
2022-12-06T10:53:51.339Z,31.43
2022-12-06T10:56:30.911Z,31.34
2022-12-06T10:59:21.650Z,32.22
2022-12-06T11:01:53.430Z,32.92
2022-12-06T11:04:35.938Z,35.08
2022-12-06T11:07:17.661Z,34.69
2022-12-06T11:09:52.061Z,35.30
2022-12-06T11:12:33.128Z,35.91
2022-12-06T11:15:18.475Z,37.18
2022-12-06T11:17:58.018Z,37.23
2022-12-06T11:20:39.797Z,37.06
2022-12-06T11:23:15.389Z,37.93
2022-12-06T11:26:08.022Z,39.36
2022-12-06T11:28:45.046Z,39.34
2022-12-06T11:31:49.858Z,41.18
2022-12-06T11:34:22.219Z,40.74
2022-12-06T11:36:59.792Z,41.23
2022-12-06T11:39:32.247Z,41.94
2022-12-06T11:42:05.762Z,42.64
2022-12-06T11:44:51.140Z,42.43
2022-12-06T11:47:24.409Z,42.89
2022-12-06T11:49:58.609Z,42.86
2022-12-06T11:52:40.314Z,44.04
2022-12-06T11:55:17.174Z,44.11
2022-12-06T11:57:57.339Z,45.03
2022-12-06T12:00:27.608Z,45.57
2022-12-06T12:02:58.713Z,46.52
2022-12-06T12:05:35.320Z,47.36
2022-12-06T12:08:27.243Z,47.82
2022-12-06T12:11:05.727Z,48.16
2022-12-06T12:13:48.318Z,47.79
2022-12-06T12:16:22.067Z,48.05
2022-12-06T12:18:56.605Z,48.21
2022-12-06T12:21:44.122Z,48.31
2022-12-06T12:25:03.216Z,48.33
2022-12-06T12:27:45.631Z,48.07
2022-12-06T12:30:34.601Z,48.01
2022-12-06T12:33:16.860Z,47.97
2022-12-06T12:35:49.919Z,47.79
2022-12-06T12:38:42.027Z,47.57
2022-12-06T12:41:34.913Z,47.11
2022-12-06T12:44:37.079Z,46.54
2022-12-06T12:47:07.639Z,46.27
2022-12-06T12:49:40.018Z,46.50
2022-12-06T12:52:31.807Z,45.68
2022-12-06T12:55:23.478Z,45.41
2022-12-06T12:58:00.328Z,45.30
2022-12-06T13:00:31.110Z,45.29
2022-12-06T13:03:14.210Z,45.53
2022-12-06T13:05:55.216Z,46.26
2022-12-06T13:08:31.703Z,46.10
2022-12-06T13:11:03.423Z,46.27
2022-12-06T13:13:40.760Z,46.56
2022-12-06T13:16:16.601Z,47.47
2022-12-06T13:18:58.879Z,47.82
2022-12-06T13:21:42.324Z,46.86
2022-12-06T13:24:16.874Z,45.93
2022-12-06T13:26:50.823Z,47.77
2022-12-06T13:29:19.881Z,44.91
2022-12-06T13:31:52.094Z,46.61
2022-12-06T13:34:59.576Z,46.29
2022-12-06T13:37:36.267Z,45.87
2022-12-06T13:40:07.696Z,46.22
2022-12-06T13:42:39.269Z,45.10
2022-12-06T13:45:46.458Z,46.55
2022-12-06T13:48:37.260Z,48.09
2022-12-06T13:51:30.821Z,48.75
2022-12-06T13:54:05.921Z,49.75
2022-12-06T13:56:34.799Z,50.99
2022-12-06T13:59:13.836Z,51.01
2022-12-06T14:01:56.084Z,49.30
2022-12-06T14:09:48.699Z,47.40
2022-12-06T14:12:27.455Z,46.87
2022-12-06T14:15:01.321Z,47.07
2022-12-06T14:20:32.981Z,47.69
2022-12-06T14:23:02.020Z,48.55
2022-12-06T14:25:32.261Z,48.19
2022-12-06T14:28:08.640Z,49.07
2022-12-06T14:30:38.150Z,48.19
2022-12-06T14:33:27.512Z,47.71
2022-12-06T14:35:57.822Z,47.52
2022-12-06T14:38:31.862Z,47.62
2022-12-06T14:41:38.846Z,47.77
2022-12-06T14:44:16.806Z,48.71
2022-12-06T14:46:48.323Z,48.43
2022-12-06T14:49:41.071Z,48.23
2022-12-06T14:52:43.154Z,47.79
2022-12-06T14:55:20.548Z,48.13
2022-12-06T14:57:52.451Z,48.52
2022-12-06T15:00:28.158Z,48.08
2022-12-06T15:03:07.643Z,47.19
2022-12-06T15:05:38.127Z,46.52
2022-12-06T15:08:28.360Z,46.79
2022-12-06T15:11:01.806Z,46.75
2022-12-06T15:13:31.794Z,46.56
2022-12-06T15:16:18.563Z,47.79
2022-12-06T15:19:01.842Z,48.10
2022-12-06T15:21:31.089Z,47.16
2022-12-06T15:23:59.750Z,47.35
2022-12-06T15:26:29.005Z,47.20
2022-12-06T15:28:58.092Z,47.11
2022-12-06T15:31:30.943Z,46.44
2022-12-06T15:33:59.930Z,46.43
2022-12-06T15:36:32.139Z,47.43
2022-12-06T15:39:01.562Z,48.51
2022-12-06T15:41:31.293Z,48.72
2022-12-06T15:44:00.355Z,49.38
2022-12-06T15:46:30.840Z,48.35
2022-12-06T15:49:00.780Z,48.48
2022-12-06T15:51:30.639Z,47.89
2022-12-06T15:54:00.901Z,46.65
2022-12-06T15:56:31.719Z,46.27
2022-12-06T15:59:00.608Z,46.13
2022-12-06T16:01:46.626Z,44.12
2022-12-06T16:04:25.312Z,40.91
2022-12-06T16:07:02.191Z,40.33
2022-12-06T16:09:51.291Z,40.55
2022-12-06T16:12:23.118Z,39.68
2022-12-06T16:14:59.533Z,38.22
2022-12-06T16:17:28.748Z,37.88
2022-12-06T16:24:11.430Z,38.72
2022-12-06T16:26:34.624Z,37.79
2022-12-06T16:29:06.153Z,37.17
2022-12-06T16:31:38.481Z,36.17
2022-12-06T16:34:09.755Z,36.81
2022-12-06T16:37:02.116Z,38.81
2022-12-06T16:39:33.104Z,39.93
2022-12-06T16:42:02.920Z,39.97
2022-12-06T16:44:32.632Z,44.47
2022-12-06T16:47:01.646Z,44.72
2022-12-06T16:49:48.888Z,46.27
2022-12-06T16:52:19.327Z,47.03
2022-12-06T16:54:48.364Z,47.44
2022-12-06T16:57:20.538Z,46.54
2022-12-06T16:59:49.770Z,43.21
2022-12-06T17:02:30.803Z,40.49
2022-12-06T17:05:07.071Z,40.29
2022-12-06T17:07:37.766Z,38.01
2022-12-06T17:10:07.221Z,37.84
2022-12-06T17:12:36.329Z,35.67
2022-12-06T17:15:06.071Z,35.27
2022-12-06T17:17:35.044Z,36.93
2022-12-06T17:20:04.022Z,36.76
2022-12-06T17:22:32.993Z,36.55
2022-12-06T17:25:02.365Z,37.58
2022-12-06T17:27:31.188Z,35.43
2022-12-06T17:30:00.572Z,34.60
2022-12-06T17:32:30.974Z,34.27
2022-12-06T17:35:00.982Z,34.04
2022-12-06T17:37:29.905Z,34.44
2022-12-06T17:39:58.885Z,34.46
2022-12-06T17:42:46.421Z,33.38
2022-12-06T17:45:15.446Z,33.62
2022-12-06T17:47:44.182Z,33.99
2022-12-06T17:50:13.282Z,33.63
2022-12-06T17:52:42.093Z,35.26
2022-12-06T17:55:15.951Z,34.13
2022-12-06T17:57:44.882Z,35.07
2022-12-06T18:00:14.236Z,36.10
2022-12-06T18:02:43.887Z,36.67
2022-12-06T18:05:15.119Z,35.48
2022-12-06T18:07:44.020Z,35.84
2022-12-06T18:10:12.972Z,35.35
2022-12-06T18:12:41.751Z,36.42
2022-12-06T18:15:30.661Z,38.92
2022-12-06T18:17:59.552Z,41.27
2022-12-06T18:20:28.370Z,44.07
2022-12-06T18:22:57.254Z,45.15
2022-12-06T18:25:25.929Z,42.29
2022-12-06T18:27:54.785Z,37.38
2022-12-06T18:30:23.727Z,35.05
2022-12-06T18:32:52.540Z,34.63
2022-12-06T18:35:21.297Z,34.12
2022-12-06T18:37:50.960Z,33.89
2022-12-06T18:40:20.406Z,33.96
2022-12-06T18:42:49.873Z,33.95
2022-12-06T18:45:18.859Z,34.38
2022-12-06T18:47:48.581Z,34.01
2022-12-06T18:50:17.403Z,33.92
2022-12-06T18:52:46.602Z,35.19
2022-12-06T18:55:15.226Z,34.02
2022-12-06T18:57:44.192Z,34.84
2022-12-06T19:00:13.681Z,34.88
2022-12-06T19:02:42.771Z,36.06
2022-12-06T19:05:11.778Z,36.11
2022-12-06T19:07:40.805Z,36.05
2022-12-06T19:10:10.108Z,35.53
2022-12-06T19:12:39.110Z,35.82
2022-12-06T19:15:08.578Z,36.13
2022-12-06T19:17:37.469Z,35.17
2022-12-06T19:20:06.672Z,35.53
2022-12-06T19:22:36.115Z,35.23
2022-12-06T19:25:05.003Z,36.24
2022-12-06T19:27:34.067Z,34.83
2022-12-06T19:30:03.712Z,35.10
2022-12-06T19:32:33.517Z,34.99
2022-12-06T19:35:08.374Z,34.13
2022-12-06T19:37:38.455Z,34.58
2022-12-06T19:40:08.376Z,35.44
2022-12-06T19:42:55.522Z,36.03
2022-12-06T19:45:25.512Z,35.99
2022-12-06T19:47:54.270Z,35.36
2022-12-06T19:50:23.209Z,36.09
2022-12-06T19:52:52.139Z,36.42
2022-12-06T19:55:21.174Z,36.62
2022-12-06T19:57:50.003Z,39.09
2022-12-06T20:00:22.765Z,36.26
2022-12-06T20:02:51.982Z,35.84
2022-12-06T20:05:20.805Z,36.35
2022-12-06T20:07:49.767Z,34.46
2022-12-06T20:10:18.596Z,34.36
2022-12-06T20:12:47.873Z,36.53
2022-12-06T20:15:16.813Z,34.09
2022-12-06T20:17:46.273Z,35.75
2022-12-06T20:20:15.128Z,35.28
2022-12-06T20:22:44.053Z,35.33
2022-12-06T20:25:15.025Z,38.08
2022-12-06T20:27:53.081Z,38.85
2022-12-06T20:30:23.880Z,37.53
2022-12-06T20:32:52.928Z,36.22
2022-12-06T20:35:21.862Z,36.46
2022-12-06T20:37:53.996Z,37.23
2022-12-06T20:40:28.239Z,37.38
2022-12-06T20:42:59.970Z,36.30
2022-12-06T20:45:28.793Z,35.98
2022-12-06T20:47:57.930Z,35.76
2022-12-06T20:50:26.876Z,35.99
2022-12-06T20:52:56.053Z,36.00
2022-12-06T20:55:24.773Z,35.82
2022-12-06T20:57:53.702Z,36.33
2022-12-06T21:00:23.441Z,36.18
2022-12-06T21:02:52.769Z,36.06
2022-12-06T21:05:21.622Z,37.17
2022-12-06T21:07:50.881Z,36.75
2022-12-06T21:10:19.667Z,36.73
2022-12-06T21:12:48.733Z,35.54
2022-12-06T21:15:17.722Z,35.86
2022-12-06T21:17:46.642Z,36.33
2022-12-06T21:20:15.375Z,36.23
2022-12-06T21:22:44.432Z,35.90
2022-12-06T21:25:14.868Z,36.11
2022-12-06T21:27:43.977Z,37.17
2022-12-06T21:30:13.148Z,36.51
2022-12-06T21:32:42.246Z,35.87
2022-12-06T21:35:14.943Z,36.03
2022-12-06T21:37:43.928Z,36.18
2022-12-06T21:40:13.416Z,37.00
2022-12-06T21:42:42.931Z,36.71
2022-12-06T21:45:12.165Z,35.90
2022-12-06T21:47:41.120Z,36.08
2022-12-06T21:50:10.610Z,36.05
2022-12-06T21:52:40.124Z,36.68
2022-12-06T21:55:15.013Z,36.60
2022-12-06T21:57:44.454Z,37.38
2022-12-06T22:00:14.031Z,37.45
2022-12-06T22:02:44.795Z,37.45
2022-12-06T22:05:13.967Z,37.55
2022-12-06T22:07:42.735Z,37.24
2022-12-06T22:10:12.448Z,36.69
2022-12-06T22:12:41.542Z,37.79
2022-12-06T22:15:10.786Z,38.01
2022-12-06T22:17:39.834Z,38.22
2022-12-06T22:20:09.177Z,38.82
2022-12-06T22:22:37.882Z,38.84
2022-12-06T22:25:08.089Z,39.58
2022-12-06T22:27:37.352Z,39.89
2022-12-06T22:30:06.964Z,40.08
2022-12-06T22:32:36.069Z,40.14
2022-12-06T22:35:05.106Z,40.92
2022-12-06T22:37:33.934Z,42.24
2022-12-06T22:40:03.128Z,41.06
2022-12-06T22:42:36.775Z,41.00
2022-12-06T22:45:06.333Z,40.69
2022-12-06T22:47:35.205Z,42.09
2022-12-06T22:50:04.489Z,41.38
2022-12-06T22:52:33.348Z,41.55
2022-12-06T22:55:02.581Z,41.57
2022-12-06T22:57:31.432Z,40.50
2022-12-06T23:00:00.749Z,41.65
2022-12-06T23:02:29.787Z,39.94
2022-12-06T23:04:59.032Z,40.44
2022-12-06T23:07:27.884Z,41.36
2022-12-06T23:09:57.205Z,41.44
2022-12-06T23:12:25.849Z,41.92
2022-12-06T23:14:54.960Z,41.47
2022-12-06T23:17:23.877Z,42.01
2022-12-06T23:19:52.781Z,42.35
2022-12-06T23:22:21.509Z,42.36
2022-12-06T23:24:51.622Z,41.42
2022-12-06T23:27:20.483Z,41.73
2022-12-06T23:29:49.575Z,40.88
2022-12-06T23:32:20.299Z,40.88
2022-12-06T23:34:49.416Z,41.04
2022-12-06T23:37:18.102Z,40.29
2022-12-06T23:39:47.116Z,40.52
2022-12-06T23:42:15.858Z,40.91
2022-12-06T23:44:44.749Z,40.44
2022-12-06T23:47:13.448Z,40.72
2022-12-06T23:49:42.719Z,39.60
2022-12-06T23:52:11.632Z,40.55
2022-12-06T23:54:40.866Z,39.47
2022-12-06T23:57:09.682Z,40.07
2022-12-06T23:59:38.727Z,39.46
